Time;durP1;ratioP1;P1;durP2;ratioP2;P2;SDS_P1;SDS_P2;PMS_P1;PMS_P2;Temp;Humidity;BMP_temperature;BMP_pressure;BME280_temperature;BME280_humidity;BME280_pressure;Samples;Min_cycle;Max_cycle;Signal;HPM_P1;HPM_P2
2024/01/08 00:01:32;;;;;;;1.90;1.80;;;15.80;61.70;16.60;101894.00;;;;5068803;28;20168;-44
2024/01/08 00:03:57;;;;;;;1.93;1.83;;;15.80;61.80;16.60;101896.00;;;;5070333;28;20196;-44
2024/01/08 00:06:23;;;;;;;2.00;1.90;;;15.70;61.80;16.50;101894.00;;;;5068883;28;20261;-44
2024/01/08 00:08:49;;;;;;;2.20;2.00;;;15.70;61.90;16.50;101904.00;;;;5068845;28;20170;-44
2024/01/08 00:11:15;;;;;;;1.90;1.80;;;15.70;61.90;16.50;101910.00;;;;5068710;28;20174;-45
2024/01/08 00:13:41;;;;;;;1.73;1.63;;;15.70;62.10;16.40;101907.00;;;;5070463;28;20190;-44
2024/01/08 00:16:07;;;;;;;1.90;1.80;;;15.70;62.10;16.40;101900.00;;;;5076811;28;20720;-44
2024/01/08 00:18:32;;;;;;;1.90;1.80;;;15.60;62.00;16.40;101888.00;;;;5069370;28;20564;-44
2024/01/08 00:20:59;;;;;;;2.00;1.90;;;15.60;62.00;16.40;101896.00;;;;5073786;28;20182;-49
2024/01/08 00:23:25;;;;;;;1.80;1.70;;;15.60;62.00;16.30;101893.00;;;;5071724;28;20259;-44
2024/01/08 00:25:51;;;;;;;1.70;1.60;;;15.60;62.20;16.30;101899.00;;;;5069655;28;20200;-45
2024/01/08 00:28:17;;;;;;;1.93;1.83;;;15.60;62.20;16.30;101908.00;;;;5070815;28;20538;-45
2024/01/08 00:30:42;;;;;;;1.83;1.73;;;15.50;62.30;16.30;101891.00;;;;5041016;28;20646;-45
2024/01/08 00:33:09;;;;;;;1.90;1.80;;;15.50;62.30;16.30;101892.00;;;;5050327;28;20192;-45
2024/01/08 00:35:35;;;;;;;2.03;1.90;;;15.50;62.40;16.20;101903.00;;;;5069015;28;20208;-44
2024/01/08 00:38:00;;;;;;;1.63;1.53;;;15.40;62.40;16.20;101896.00;;;;5068506;28;20664;-44
2024/01/08 00:40:26;;;;;;;2.00;1.90;;;15.40;62.40;16.20;101891.00;;;;5068402;28;20249;-44
2024/01/08 00:42:52;;;;;;;1.70;1.60;;;15.40;62.40;16.20;101894.00;;;;5071818;28;20195;-44
2024/01/08 00:45:18;;;;;;;2.10;1.90;;;15.40;62.40;16.10;101902.00;;;;5047539;28;20251;-44
2024/01/08 00:47:43;;;;;;;1.83;1.73;;;15.40;62.60;16.10;101902.00;;;;5068657;28;20674;-44
2024/01/08 00:50:13;;;;;;;2.10;2.00;;;15.30;62.60;16.10;101895.00;;;;5068257;28;20181;-44
2024/01/08 00:52:40;;;;;;;1.80;1.70;;;15.30;62.60;16.10;101895.00;;;;5068536;28;20162;-43
2024/01/08 00:55:06;;;;;;;1.90;1.80;;;15.30;62.60;16.00;101891.00;;;;5068628;28;20173;-44
2024/01/08 00:57:32;;;;;;;2.00;1.90;;;15.30;62.60;16.00;101898.00;;;;5068346;28;20216;-44
2024/01/08 00:59:58;;;;;;;1.80;1.70;;;15.30;62.70;16.00;101895.00;;;;5065440;28;20177;-44
2024/01/08 01:02:24;;;;;;;1.90;1.80;;;15.20;62.70;16.00;101896.00;;;;5049279;28;20239;-44
2024/01/08 01:04:49;;;;;;;1.93;1.83;;;15.20;62.60;16.00;101898.00;;;;5066876;28;20194;-45
2024/01/08 01:07:15;;;;;;;1.80;1.70;;;15.20;62.60;15.90;101877.00;;;;5066786;28;20256;-45
2024/01/08 01:09:41;;;;;;;1.90;1.80;;;15.20;62.70;15.90;101903.00;;;;5042658;28;20174;-45
2024/01/08 01:12:07;;;;;;;1.93;1.83;;;15.10;62.60;15.90;101900.00;;;;5066937;28;20212;-44
2024/01/08 01:14:32;;;;;;;1.97;1.87;;;15.10;62.70;15.90;101913.00;;;;5070101;28;20192;-44
2024/01/08 01:16:59;;;;;;;1.70;1.60;;;15.10;62.70;15.90;101907.00;;;;5067616;28;20186;-44
2024/01/08 01:19:24;;;;;;;1.80;1.70;;;15.10;62.90;15.90;101914.00;;;;5069745;28;20661;-44
2024/01/08 01:21:50;;;;;;;2.00;1.80;;;15.10;62.90;15.90;101908.00;;;;5070641;28;20201;-44
2024/01/08 01:24:16;;;;;;;1.90;1.80;;;15.00;62.80;15.90;101906.00;;;;5042890;28;20232;-43
2024/01/08 01:26:42;;;;;;;1.90;1.80;;;15.00;63.00;15.90;101922.00;;;;5070880;28;20582;-44
2024/01/08 01:29:08;;;;;;;1.90;1.80;;;15.00;63.10;15.90;101927.00;;;;5070800;28;20247;-44
2024/01/08 01:31:33;;;;;;;1.90;1.80;;;14.90;63.40;15.80;101919.00;;;;5070763;28;20201;-44
2024/01/08 01:34:00;;;;;;;1.97;1.87;;;14.80;63.30;15.80;101923.00;;;;5070446;28;20287;-44
2024/01/08 01:36:26;;;;;;;1.90;1.80;;;14.90;63.50;15.80;101935.00;;;;5071829;28;20276;-44
2024/01/08 01:38:52;;;;;;;1.80;1.70;;;14.80;63.40;15.80;101927.00;;;;5067999;28;20264;-44
2024/01/08 01:41:17;;;;;;;1.80;1.70;;;14.90;63.90;15.80;101930.00;;;;5070110;28;20784;-44
2024/01/08 01:43:43;;;;;;;1.93;1.73;;;14.80;63.80;15.80;101942.00;;;;5072174;28;20190;-44
2024/01/08 01:46:21;;;;;;;1.90;1.80;;;14.80;63.80;15.80;101928.00;;;;5069863;28;20217;-43
2024/01/08 01:48:47;;;;;;;1.90;1.80;;;14.80;63.80;15.80;101941.00;;;;5045867;28;20253;-44
2024/01/08 01:51:13;;;;;;;1.70;1.60;;;14.80;63.80;15.80;101939.00;;;;5053913;28;20301;-44
2024/01/08 01:53:39;;;;;;;1.83;1.73;;;14.80;63.80;15.80;101940.00;;;;5070818;28;20720;-43
2024/01/08 01:56:05;;;;;;;1.80;1.70;;;14.80;63.80;15.70;101944.00;;;;5018380;28;20224;-44
2024/01/08 01:58:31;;;;;;;1.90;1.80;;;14.70;63.80;15.70;101948.00;;;;5052067;28;20173;-44
2024/01/08 02:00:56;;;;;;;1.80;1.70;;;14.70;63.80;15.70;101941.00;;;;5070674;28;20196;-44
2024/01/08 02:03:22;;;;;;;1.90;1.80;;;14.70;64.10;15.70;101935.00;;;;5046646;28;20189;-44
2024/01/08 02:05:48;;;;;;;1.80;1.70;;;14.70;63.90;15.70;101937.00;;;;5051457;28;20549;-45
2024/01/08 02:08:13;;;;;;;1.90;1.80;;;14.70;64.00;15.70;101927.00;;;;5072598;28;20189;-44
2024/01/08 02:10:40;;;;;;;1.80;1.70;;;14.70;64.00;15.70;101929.00;;;;5048656;28;20547;-44
2024/01/08 02:13:05;;;;;;;1.73;1.63;;;14.60;64.10;15.60;101930.00;;;;5069064;28;20197;-45
2024/01/08 02:15:31;;;;;;;2.10;1.90;;;14.60;64.20;15.60;101927.00;;;;5071034;28;20180;-44
2024/01/08 02:17:57;;;;;;;1.90;1.80;;;14.60;64.20;15.60;101926.00;;;;5069290;28;20238;-44
2024/01/08 02:20:23;;;;;;;1.80;1.70;;;14.60;64.10;15.60;101928.00;;;;5077092;28;20545;-45
2024/01/08 02:22:48;;;;;;;1.90;1.80;;;14.60;64.00;15.60;101929.00;;;;5069569;28;20169;-44
2024/01/08 02:25:14;;;;;;;1.70;1.60;;;14.60;64.10;15.60;101922.00;;;;5041230;28;20212;-45
2024/01/08 02:27:40;;;;;;;1.77;1.67;;;14.60;64.00;15.60;101918.00;;;;5045498;28;20202;-44
2024/01/08 02:30:06;;;;;;;1.90;1.80;;;14.60;64.00;15.60;101909.00;;;;5069228;28;20668;-44
2024/01/08 02:32:32;;;;;;;1.90;1.80;;;14.60;64.20;15.60;101923.00;;;;5072601;28;20170;-50
2024/01/08 02:34:58;;;;;;;1.93;1.83;;;14.60;64.20;15.50;101930.00;;;;5071996;28;20863;-44
2024/01/08 02:37:24;;;;;;;1.90;1.80;;;14.60;64.50;15.50;101930.00;;;;5069727;28;20490;-44
2024/01/08 02:39:49;;;;;;;1.87;1.77;;;14.50;64.50;15.50;101920.00;;;;5068553;28;20361;-45
2024/01/08 02:42:18;;;;;;;1.67;1.57;;;14.50;64.00;15.50;101919.00;;;;5068649;28;20683;-44
2024/01/08 02:44:43;;;;;;;1.80;1.70;;;14.60;64.00;15.50;101927.00;;;;5068926;28;20594;-44
2024/01/08 02:47:09;;;;;;;1.90;1.80;;;14.60;63.70;15.50;101933.00;;;;5068839;28;20181;-44
2024/01/08 02:49:39;;;;;;;1.90;1.80;;;14.60;63.70;15.50;101930.00;;;;5050637;28;20189;-44
2024/01/08 02:52:05;;;;;;;1.80;1.70;;;14.60;63.70;15.50;101933.00;;;;5069186;28;20189;-44
2024/01/08 02:54:31;;;;;;;2.10;1.90;;;14.60;63.60;15.40;101941.00;;;;5052993;28;20567;-44
2024/01/08 02:56:59;;;;;;;2.00;1.90;;;14.60;63.60;15.40;101935.00;;;;5068795;28;20180;-43
2024/01/08 02:59:24;;;;;;;1.70;1.60;;;14.60;63.60;15.40;101941.00;;;;5068630;28;20165;-43
2024/01/08 03:01:50;;;;;;;1.80;1.70;;;14.60;63.60;15.40;101943.00;;;;5068634;28;20661;-44
2024/01/08 03:04:16;;;;;;;1.73;1.63;;;14.50;63.50;15.40;101940.00;;;;5068570;28;20209;-44
2024/01/08 03:06:41;;;;;;;1.80;1.70;;;14.50;63.60;15.40;101944.00;;;;5068656;28;20202;-43
2024/01/08 03:09:07;;;;;;;1.63;1.53;;;14.50;63.50;15.30;101941.00;;;;5068737;28;20746;-45
2024/01/08 03:11:33;;;;;;;1.93;1.83;;;14.50;63.50;15.30;101946.00;;;;5067822;28;20166;-43
2024/01/08 03:13:58;;;;;;;1.83;1.73;;;14.50;63.60;15.30;101940.00;;;;5065765;28;20193;-43
2024/01/08 03:16:24;;;;;;;2.00;1.90;;;14.50;63.50;15.30;101947.00;;;;5068787;28;20192;-45
2024/01/08 03:18:50;;;;;;;1.80;1.70;;;14.50;63.50;15.30;101940.00;;;;5065514;28;20165;-44
2024/01/08 03:21:16;;;;;;;1.80;1.70;;;14.50;63.60;15.30;101962.00;;;;5068186;28;20182;-44
2024/01/08 03:23:41;;;;;;;1.70;1.60;;;14.40;64.10;15.30;101949.00;;;;5068217;28;20208;-45
2024/01/08 03:26:07;;;;;;;1.80;1.70;;;14.30;64.50;15.30;101945.00;;;;5070127;28;20232;-44
2024/01/08 03:28:33;;;;;;;1.77;1.67;;;14.30;64.60;15.30;101946.00;;;;5068243;28;20170;-45
2024/01/08 03:31:00;;;;;;;1.80;1.70;;;14.20;64.60;15.20;101946.00;;;;5067971;28;20178;-44
2024/01/08 03:33:26;;;;;;;1.70;1.60;;;14.20;64.70;15.20;101950.00;;;;5068081;28;20198;-44
2024/01/08 03:35:51;;;;;;;1.77;1.67;;;14.20;64.80;15.20;101948.00;;;;5070136;28;20244;-45
2024/01/08 03:38:18;;;;;;;1.80;1.70;;;14.20;64.60;15.20;101950.00;;;;5064448;28;20177;-44
2024/01/08 03:40:44;;;;;;;1.83;1.73;;;14.10;64.70;15.20;101957.00;;;;5067940;28;20180;-44
2024/01/08 03:43:10;;;;;;;1.87;1.77;;;14.10;64.90;15.20;101964.00;;;;5067920;28;20276;-44
2024/01/08 03:45:36;;;;;;;1.93;1.83;;;14.10;64.80;15.10;101960.00;;;;5064213;28;20676;-44
2024/01/08 03:48:02;;;;;;;1.70;1.60;;;14.10;65.80;15.10;101955.00;;;;5069869;28;20284;-44
2024/01/08 03:50:28;;;;;;;1.90;1.70;;;14.10;65.40;15.10;101953.00;;;;5068023;28;20173;-45
2024/01/08 03:52:53;;;;;;;1.93;1.80;;;14.20;65.00;15.10;101952.00;;;;5067876;28;20198;-44
2024/01/08 03:55:19;;;;;;;2.13;2.03;;;14.20;64.80;15.10;101950.00;;;;5072831;28;20174;-46
2024/01/08 03:57:45;;;;;;;2.23;2.03;;;14.10;64.30;15.00;101955.00;;;;5081557;28;20170;-44
2024/01/08 04:00:11;;;;;;;3.33;2.30;;;14.10;64.10;15.00;101920.00;;;;5072850;28;20189;-45
2024/01/08 04:02:40;;;;;;;2.60;2.40;;;14.10;63.80;15.00;101952.00;;;;5041081;28;20230;-45
2024/01/08 04:05:08;;;;;;;2.73;2.53;;;14.10;63.60;15.00;101951.00;;;;5068306;28;20259;-44
2024/01/08 04:07:34;;;;;;;2.67;2.47;;;14.00;63.00;14.90;101950.00;;;;5070171;28;20166;-44
2024/01/08 04:09:59;;;;;;;3.07;2.50;;;14.00;62.70;14.90;101946.00;;;;5058151;28;20679;-44
2024/01/08 04:12:25;;;;;;;2.80;2.60;;;14.00;62.50;14.90;101948.00;;;;5075859;28;20169;-44
2024/01/08 04:14:51;;;;;;;3.07;2.80;;;13.90;62.30;14.90;101948.00;;;;5068859;28;20206;-45
2024/01/08 04:17:17;;;;;;;2.90;2.70;;;13.90;62.10;14.80;101952.00;;;;5065625;28;20234;-44
2024/01/08 04:19:42;;;;;;;3.67;2.90;;;13.90;61.90;14.80;101951.00;;;;5068865;28;20166;-44
2024/01/08 04:22:08;;;;;;;3.20;2.90;;;13.90;61.70;14.80;101947.00;;;;5068917;28;20657;-44
2024/01/08 04:24:34;;;;;;;2.97;2.77;;;13.80;61.50;14.80;101952.00;;;;5044118;28;20190;-44
2024/01/08 04:26:59;;;;;;;2.90;2.70;;;13.80;61.30;14.80;101939.00;;;;5068639;28;20205;-44
2024/01/08 04:29:25;;;;;;;2.93;2.73;;;13.80;61.20;14.80;101944.00;;;;5068225;28;20585;-44
2024/01/08 04:31:51;;;;;;;2.90;2.70;;;13.70;60.90;14.70;101950.00;;;;5068475;28;20181;-44
2024/01/08 04:34:17;;;;;;;3.10;2.90;;;13.80;61.50;14.70;101952.00;;;;5071880;28;20787;-45
2024/01/08 04:36:43;;;;;;;2.87;2.67;;;13.90;61.40;14.70;101952.00;;;;5068612;28;20178;-44
2024/01/08 04:39:09;;;;;;;2.77;2.57;;;13.90;61.10;14.70;101954.00;;;;5068597;28;20756;-43
2024/01/08 04:41:35;;;;;;;2.80;2.60;;;13.80;61.10;14.70;101959.00;;;;5068069;28;20653;-45
2024/01/08 04:44:01;;;;;;;2.90;2.70;;;13.90;61.10;14.70;101959.00;;;;5068538;28;20189;-44
2024/01/08 04:46:26;;;;;;;2.80;2.60;;;13.80;61.90;14.70;101957.00;;;;5069757;28;20712;-44
2024/01/08 04:48:52;;;;;;;2.70;2.50;;;13.90;61.30;14.70;101956.00;;;;5074199;28;20170;-45
2024/01/08 04:51:24;;;;;;;3.13;2.50;;;13.80;61.30;14.70;101952.00;;;;5072264;28;20177;-44
2024/01/08 04:53:50;;;;;;;3.53;2.70;;;13.80;61.20;14.60;101955.00;;;;5047890;28;20189;-44
2024/01/08 04:56:23;;;;;;;5.37;2.67;;;13.90;61.50;14.60;101957.00;;;;5074278;28;20188;-44
2024/01/08 04:58:50;;;;;;;3.70;2.60;;;13.80;61.50;14.60;101961.00;;;;5072314;28;20184;-44
2024/01/08 05:01:16;;;;;;;5.87;2.80;;;13.80;61.60;14.60;101957.00;;;;5075821;28;20192;-44
2024/01/08 05:03:43;;;;;;;8.13;2.67;;;13.80;61.60;14.60;101963.00;;;;5072867;28;20193;-44
2024/01/08 05:06:12;;;;;;;4.23;2.50;;;13.80;61.70;14.60;101952.00;;;;5073079;28;20196;-44
2024/01/08 05:08:38;;;;;;;4.77;2.60;;;13.80;61.70;14.60;101959.00;;;;5070897;28;20166;-44
2024/01/08 05:11:05;;;;;;;4.20;2.50;;;13.70;62.10;14.60;101962.00;;;;5073285;28;20218;-44
2024/01/08 05:13:34;;;;;;;3.53;2.80;;;13.70;62.00;14.60;101960.00;;;;5072304;28;20772;-43
2024/01/08 05:16:01;;;;;;;4.30;2.50;;;13.70;62.00;14.60;101962.00;;;;5051077;28;20189;-45
2024/01/08 05:18:27;;;;;;;3.07;2.40;;;13.70;62.00;14.50;101952.00;;;;5071768;28;20295;-44
2024/01/08 05:20:53;;;;;;;2.90;2.57;;;13.70;62.00;14.50;101949.00;;;;5071678;28;20174;-44
2024/01/08 05:23:18;;;;;;;3.50;2.30;;;13.70;61.90;14.50;101955.00;;;;5071818;28;20216;-44
2024/01/08 05:25:44;;;;;;;3.60;2.40;;;13.70;62.00;14.50;101945.00;;;;5071857;28;20205;-44
2024/01/08 05:28:10;;;;;;;3.10;2.23;;;13.70;62.10;14.50;101945.00;;;;5071977;28;20586;-44
2024/01/08 05:30:36;;;;;;;2.67;2.37;;;13.70;62.10;14.50;101936.00;;;;5071812;28;20177;-45
2024/01/08 05:33:03;;;;;;;3.50;2.60;;;13.70;62.30;14.50;101942.00;;;;5071561;28;20189;-45
2024/01/08 05:35:28;;;;;;;2.70;2.50;;;13.70;62.40;14.50;101936.00;;;;5047052;28;20203;-43
2024/01/08 05:37:55;;;;;;;2.63;2.33;;;13.60;62.30;14.50;101939.00;;;;5071752;28;20174;-43
2024/01/08 05:40:21;;;;;;;2.80;2.30;;;13.60;62.40;14.50;101934.00;;;;5066826;28;20256;-44
2024/01/08 05:42:47;;;;;;;2.37;2.17;;;13.60;63.20;14.40;101939.00;;;;5071696;28;20840;-44
2024/01/08 05:45:13;;;;;;;2.33;2.13;;;13.60;62.40;14.40;101953.00;;;;5044199;28;20193;-44
2024/01/08 05:47:38;;;;;;;2.70;2.20;;;13.60;62.50;14.40;101943.00;;;;5070510;28;20169;-44
2024/01/08 05:50:05;;;;;;;2.80;2.30;;;13.60;62.50;14.40;101940.00;;;;5074381;28;20231;-45
2024/01/08 05:52:32;;;;;;;2.73;2.53;;;13.50;62.50;14.40;101952.00;;;;5074387;28;20173;-44
2024/01/08 05:54:57;;;;;;;2.90;2.40;;;13.60;62.60;14.30;101936.00;;;;5072251;28;20269;-44
2024/01/08 05:57:23;;;;;;;2.43;2.23;;;13.50;62.50;14.40;101941.00;;;;5072967;28;20252;-44
2024/01/08 05:59:49;;;;;;;2.50;2.30;;;13.50;62.50;14.40;101939.00;;;;5071973;28;20166;-45
2024/01/08 06:02:14;;;;;;;2.90;2.30;;;13.50;62.50;14.40;101938.00;;;;5074927;28;20196;-44
2024/01/08 06:04:40;;;;;;;2.37;2.17;;;13.50;62.50;14.30;101935.00;;;;5077668;28;20275;-44
2024/01/08 06:07:06;;;;;;;2.50;2.30;;;13.50;62.50;14.30;101949.00;;;;5072318;28;20288;-44
2024/01/08 06:09:32;;;;;;;2.33;2.13;;;13.50;62.50;14.30;101942.00;;;;5073621;28;20192;-43
2024/01/08 06:12:00;;;;;;;2.83;2.27;;;13.50;62.50;14.30;101942.00;;;;5071129;28;20181;-44
2024/01/08 06:14:26;;;;;;;2.40;2.07;;;13.40;62.30;14.30;101945.00;;;;5071082;28;20797;-43
2024/01/08 06:16:52;;;;;;;2.53;2.30;;;13.50;63.30;14.30;101948.00;;;;5067992;28;20208;-44
2024/01/08 06:19:18;;;;;;;2.37;2.00;;;13.40;62.50;14.30;101944.00;;;;5078860;28;20178;-44
2024/01/08 06:21:44;;;;;;;2.33;2.20;;;13.40;62.50;14.20;101940.00;;;;5042090;28;20257;-45
2024/01/08 06:24:10;;;;;;;2.40;2.20;;;13.40;62.50;14.20;101941.00;;;;5069496;28;20201;-43
2024/01/08 06:26:35;;;;;;;2.27;2.07;;;13.40;62.50;14.20;101948.00;;;;5070190;28;20594;-44
2024/01/08 06:29:01;;;;;;;2.23;2.10;;;13.40;62.50;14.20;101939.00;;;;5070371;28;20220;-45
2024/01/08 06:31:27;;;;;;;2.40;2.20;;;13.40;62.50;14.20;101948.00;;;;5061834;28;20260;-43
2024/01/08 06:33:53;;;;;;;2.20;2.00;;;13.40;62.60;14.20;101952.00;;;;5045394;28;20200;-44
2024/01/08 06:36:19;;;;;;;2.10;1.90;;;13.40;62.60;14.20;101950.00;;;;5071475;28;20193;-44
2024/01/08 06:38:45;;;;;;;2.40;2.20;;;13.30;62.50;14.20;101961.00;;;;5069980;28;20181;-45
2024/01/08 06:41:11;;;;;;;2.00;1.90;;;13.40;62.80;14.20;101950.00;;;;5070039;28;20178;-44
2024/01/08 06:43:38;;;;;;;2.40;2.20;;;13.30;62.70;14.10;101955.00;;;;5069949;28;20681;-44
2024/01/08 06:46:06;;;;;;;2.10;2.00;;;13.30;62.80;14.10;101961.00;;;;5069451;28;20201;-44
2024/01/08 06:48:32;;;;;;;2.20;2.00;;;13.20;62.70;14.10;101955.00;;;;5070036;28;20177;-45
2024/01/08 06:51:01;;;;;;;2.40;2.20;;;13.30;62.90;14.10;101941.00;;;;5069562;28;20170;-44
2024/01/08 06:53:27;;;;;;;2.00;1.90;;;13.30;62.80;14.10;101956.00;;;;5069897;28;20185;-45
2024/01/08 06:55:53;;;;;;;2.30;2.10;;;13.30;62.80;14.10;101937.00;;;;5070046;28;20401;-44
2024/01/08 06:58:19;;;;;;;2.60;2.20;;;13.30;62.80;14.10;101943.00;;;;5069693;28;20189;-43
2024/01/08 07:00:45;;;;;;;2.30;2.10;;;13.30;62.90;14.10;101954.00;;;;5074186;28;20560;-44
2024/01/08 07:03:10;;;;;;;2.27;2.10;;;13.20;62.80;14.00;101951.00;;;;5071274;28;20225;-44
2024/01/08 07:05:37;;;;;;;2.33;2.13;;;13.20;62.80;14.00;101930.00;;;;5069795;28;20190;-44
2024/01/08 07:08:03;;;;;;;2.47;2.10;;;13.20;62.80;14.00;101953.00;;;;5069872;28;20173;-46
2024/01/08 07:10:30;;;;;;;2.57;2.37;;;13.20;62.90;14.00;101944.00;;;;5063480;28;20170;-45
2024/01/08 07:12:56;;;;;;;2.63;2.00;;;13.20;63.00;14.00;101951.00;;;;5069188;28;20796;-45
2024/01/08 07:15:38;;;;;;;2.10;2.00;;;13.20;62.90;14.00;101953.00;;;;5049103;28;20178;-46
2024/01/08 07:18:04;;;;;;;2.53;2.30;;;13.20;63.10;14.00;101962.00;;;;5062880;28;20192;-46
2024/01/08 07:20:30;;;;;;;2.50;2.30;;;13.10;62.90;14.00;101969.00;;;;5073943;28;20177;-46
2024/01/08 07:22:56;;;;;;;2.30;2.10;;;13.20;63.00;13.90;101964.00;;;;5065622;28;20570;-46
2024/01/08 07:25:22;;;;;;;2.33;2.13;;;13.10;63.00;13.90;101961.00;;;;5069224;28;20221;-46
2024/01/08 07:27:47;;;;;;;2.30;2.10;;;13.10;63.10;13.90;101963.00;;;;5043933;28;20188;-46
2024/01/08 07:30:13;;;;;;;2.20;2.00;;;13.10;63.10;13.90;101961.00;;;;5068943;28;20177;-46
2024/01/08 07:32:39;;;;;;;2.10;2.00;;;13.10;63.10;13.90;101974.00;;;;5068913;28;20185;-46
2024/01/08 07:35:05;;;;;;;2.30;2.10;;;13.10;63.10;13.90;101965.00;;;;5069013;28;20219;-46
2024/01/08 07:37:31;;;;;;;2.07;1.97;;;13.10;63.10;13.90;101969.00;;;;5069104;28;20178;-46
2024/01/08 07:39:57;;;;;;;2.40;2.20;;;13.00;63.00;13.90;101972.00;;;;5065793;28;20800;-46
2024/01/08 07:42:22;;;;;;;2.20;2.00;;;13.00;63.10;13.90;101975.00;;;;5077036;28;20170;-47
2024/01/08 07:44:48;;;;;;;2.13;2.03;;;13.00;63.00;13.80;101973.00;;;;5072068;28;20224;-46
2024/01/08 07:47:14;;;;;;;2.20;2.00;;;13.00;63.10;13.80;101978.00;;;;5068843;28;20217;-46
2024/01/08 07:49:40;;;;;;;2.30;2.10;;;13.00;63.10;13.80;101979.00;;;;5069098;28;20177;-46
2024/01/08 07:52:05;;;;;;;2.30;2.10;;;13.00;63.30;13.80;101981.00;;;;5069035;28;20216;-46
2024/01/08 07:54:31;;;;;;;2.47;1.90;;;13.00;63.30;13.80;101973.00;;;;5075067;28;20193;-46
2024/01/08 07:56:57;;;;;;;2.30;2.10;;;13.00;63.70;13.80;101985.00;;;;5073062;28;20177;-46
2024/01/08 07:59:23;;;;;;;3.17;2.53;;;12.90;63.90;13.80;101985.00;;;;5069925;28;20231;-46
2024/01/08 08:01:48;;;;;;;2.80;2.60;;;12.80;64.30;13.80;101985.00;;;;5068626;28;20178;-46
2024/01/08 08:04:15;;;;;;;2.50;2.30;;;12.90;64.50;13.80;101986.00;;;;5068556;28;20229;-45
2024/01/08 08:06:41;;;;;;;2.40;2.20;;;12.80;65.10;13.80;101987.00;;;;5068346;28;20251;-46
2024/01/08 08:09:07;;;;;;;2.87;2.17;;;12.80;64.40;13.80;101984.00;;;;5043724;28;20170;-45
2024/01/08 08:11:33;;;;;;;3.07;2.20;;;12.90;64.50;13.80;101986.00;;;;5068204;28;20185;-45
2024/01/08 08:13:59;;;;;;;2.83;2.23;;;12.90;65.20;13.70;101986.00;;;;5068170;28;20208;-46
2024/01/08 08:16:24;;;;;;;2.33;2.13;;;12.90;64.30;13.70;101978.00;;;;5068893;28;20181;-46
2024/01/08 08:18:50;;;;;;;2.43;2.23;;;12.90;64.10;13.70;101963.00;;;;5064925;28;20553;-45
2024/01/08 08:21:17;;;;;;;2.37;2.00;;;12.90;64.10;13.70;101980.00;;;;5068682;28;20203;-46
2024/01/08 08:23:43;;;;;;;2.50;2.30;;;12.90;64.00;13.70;101979.00;;;;5067608;28;20275;-46
2024/01/08 08:26:08;;;;;;;2.40;2.20;;;12.90;64.00;13.70;101983.00;;;;5069014;28;20205;-46
2024/01/08 08:28:34;;;;;;;2.17;2.07;;;12.90;63.90;13.70;101998.00;;;;5069459;28;20177;-45
2024/01/08 08:31:00;;;;;;;2.23;2.03;;;12.90;63.80;13.70;102003.00;;;;5069020;28;20181;-45
2024/01/08 08:33:26;;;;;;;2.33;2.13;;;12.90;63.80;13.70;101998.00;;;;5068863;28;20197;-45
2024/01/08 08:35:51;;;;;;;2.63;2.43;;;12.90;63.80;13.70;101993.00;;;;5063268;28;20190;-45
2024/01/08 08:38:17;;;;;;;2.73;2.30;;;12.80;64.10;13.70;101994.00;;;;5060146;28;20188;-45
2024/01/08 08:40:43;;;;;;;2.80;2.50;;;12.80;64.40;13.70;102013.00;;;;5064653;28;20558;-45
2024/01/08 08:43:09;;;;;;;6.17;2.33;;;12.80;65.00;13.60;102011.00;;;;5066703;28;20228;-45
2024/01/08 08:45:35;;;;;;;5.87;2.20;;;12.80;65.20;13.60;102007.00;;;;5072684;28;20310;-45
2024/01/08 08:48:01;;;;;;;3.73;2.13;;;12.90;65.90;13.60;102009.00;;;;5068119;28;20319;-46
2024/01/08 08:50:27;;;;;;;2.60;2.40;;;13.00;65.90;13.60;102011.00;;;;5067718;28;20718;-45
2024/01/08 08:52:53;;;;;;;6.07;2.27;;;13.00;65.50;13.70;102022.00;;;;5068099;28;20200;-49
2024/01/08 08:55:18;;;;;;;3.43;2.13;;;13.10;65.70;13.70;102022.00;;;;5065789;28;20248;-45
2024/01/08 08:57:44;;;;;;;4.40;2.30;;;13.20;65.40;13.80;102011.00;;;;5066907;28;20184;-46
2024/01/08 09:00:10;;;;;;;3.07;2.30;;;13.30;65.30;13.90;102014.00;;;;5067559;28;20694;-46
2024/01/08 09:02:36;;;;;;;2.73;2.10;;;13.40;65.60;14.00;102013.00;;;;5068859;28;20190;-46
2024/01/08 09:05:04;;;;;;;5.33;2.13;;;13.50;65.10;14.10;102020.00;;;;5068365;28;20332;-47
2024/01/08 09:07:30;;;;;;;2.90;2.00;;;13.60;65.20;14.20;102023.00;;;;5043728;28;20174;-47
2024/01/08 09:09:56;;;;;;;4.03;2.33;;;13.70;65.10;14.20;101995.00;;;;5068600;28;20182;-46
2024/01/08 09:12:21;;;;;;;3.60;2.00;;;13.80;65.40;14.30;102009.00;;;;5075541;28;20181;-46
2024/01/08 09:14:47;;;;;;;2.63;2.17;;;13.90;65.80;14.40;102027.00;;;;5064212;28;20189;-47
2024/01/08 09:17:13;;;;;;;3.43;1.90;;;14.10;65.20;14.50;102025.00;;;;5071951;28;20188;-50
2024/01/08 09:19:38;;;;;;;2.97;2.10;;;14.10;65.00;14.60;102024.00;;;;5068352;28;20178;-47
2024/01/08 09:22:04;;;;;;;3.40;1.97;;;14.20;64.90;14.70;102023.00;;;;5046773;28;20210;-47
2024/01/08 09:24:30;;;;;;;4.43;2.00;;;14.40;64.70;14.80;102020.00;;;;5042748;28;20228;-47
2024/01/08 09:26:56;;;;;;;2.90;2.10;;;14.50;64.50;14.90;102025.00;;;;5067976;28;20212;-47
2024/01/08 09:29:22;;;;;;;3.47;2.10;;;14.60;63.80;15.00;102027.00;;;;5068117;28;20225;-46
2024/01/08 09:31:47;;;;;;;3.97;2.00;;;14.80;63.90;15.10;102017.00;;;;5068563;28;20289;-47
2024/01/08 09:34:13;;;;;;;3.97;2.10;;;14.90;63.40;15.20;102021.00;;;;5077381;28;20202;-48
2024/01/08 09:36:39;;;;;;;3.33;1.90;;;15.00;63.10;15.30;102025.00;;;;5064139;28;20181;-47
2024/01/08 09:39:05;;;;;;;2.73;2.10;;;15.10;63.00;15.40;102017.00;;;;5070069;28;20181;-46
2024/01/08 09:41:31;;;;;;;2.63;1.90;;;15.20;62.80;15.60;102024.00;;;;5072795;28;20177;-47
2024/01/08 09:44:03;;;;;;;2.30;2.10;;;15.30;62.80;15.60;102017.00;;;;5067660;28;20212;-48
2024/01/08 09:46:33;;;;;;;2.97;2.20;;;15.30;63.00;15.70;102031.00;;;;5064726;28;20572;-46
2024/01/08 09:49:00;;;;;;;3.77;1.93;;;15.40;63.10;15.80;102030.00;;;;5058522;28;20190;-48
2024/01/08 09:51:25;;;;;;;4.03;2.00;;;15.50;63.10;15.90;102038.00;;;;5076677;28;20173;-47
2024/01/08 09:53:52;;;;;;;6.57;2.20;;;15.60;63.10;16.00;102032.00;;;;5046374;28;20201;-47
2024/01/08 09:56:20;;;;;;;3.23;2.00;;;15.70;63.00;16.00;102020.00;;;;5045045;28;20230;-47
2024/01/08 09:58:45;;;;;;;3.37;2.13;;;15.70;63.00;16.10;102024.00;;;;5046341;28;20181;-47
2024/01/08 10:01:11;;;;;;;4.40;1.90;;;15.80;63.20;16.20;102022.00;;;;5071125;28;20736;-47
2024/01/08 10:03:37;;;;;;;3.97;2.07;;;15.90;63.10;16.30;102019.00;;;;5071356;28;20197;-48
2024/01/08 10:06:09;;;;;;;6.53;2.30;;;15.90;63.00;16.30;102022.00;;;;5068241;28;20701;-47
2024/01/08 10:08:35;;;;;;;5.00;2.13;;;16.00;62.90;16.40;102034.00;;;;5071099;28;20613;-47
2024/01/08 10:11:03;;;;;;;2.77;1.93;;;16.10;62.90;16.50;102020.00;;;;5067373;28;20191;-47
2024/01/08 10:13:28;;;;;;;4.27;2.10;;;16.10;62.80;16.50;102026.00;;;;5070769;28;20248;-47
2024/01/08 10:15:54;;;;;;;3.73;2.10;;;16.20;62.80;16.60;102029.00;;;;5071097;28;20761;-46
2024/01/08 10:18:20;;;;;;;3.50;1.90;;;16.30;62.70;16.70;102037.00;;;;5069814;28;20180;-47
2024/01/08 10:20:46;;;;;;;3.43;2.13;;;16.30;62.70;16.70;102039.00;;;;5046473;28;20269;-47
2024/01/08 10:23:16;;;;;;;2.50;1.80;;;16.30;62.70;16.80;102030.00;;;;5070592;28;20211;-47
2024/01/08 10:25:49;;;;;;;2.17;1.97;;;16.30;62.80;16.90;102034.00;;;;5067246;28;20202;-48
2024/01/08 10:28:16;;;;;;;2.80;2.00;;;16.40;63.00;16.90;102024.00;;;;5044918;28;20312;-47
2024/01/08 10:30:42;;;;;;;2.90;2.23;;;16.50;62.70;16.90;102020.00;;;;5051864;28;20173;-47
2024/01/08 10:33:08;;;;;;;2.43;1.97;;;16.50;62.60;17.00;102025.00;;;;5043717;28;20630;-47
2024/01/08 10:35:34;;;;;;;4.03;2.20;;;16.50;62.60;17.00;102040.00;;;;5071095;28;20193;-47
2024/01/08 10:38:00;;;;;;;3.13;2.10;;;16.50;62.80;17.00;102027.00;;;;5033500;28;20210;-48
2024/01/08 10:40:28;;;;;;;4.43;2.03;;;16.50;62.70;17.10;102026.00;;;;5045405;28;20195;-47
2024/01/08 10:42:54;;;;;;;3.03;2.07;;;16.60;62.80;17.10;102020.00;;;;5049929;28;20211;-47